createdAt,value
2023-05-10T00:03:59.677Z,60.36
2023-05-10T00:09:02.222Z,61.21
2023-05-10T00:14:04.923Z,60.85
2023-05-10T00:19:07.606Z,60.82
2023-05-10T00:24:10.184Z,61.48
2023-05-10T00:29:12.860Z,62.15
2023-05-10T00:34:15.797Z,63.16
2023-05-10T00:39:18.406Z,63.13
2023-05-10T00:44:20.966Z,62.88
2023-05-10T00:49:23.874Z,62.97
2023-05-10T00:54:26.608Z,63.03
2023-05-10T00:59:30.138Z,62.38
2023-05-10T01:04:32.686Z,62.48
2023-05-10T01:09:35.644Z,62.16
2023-05-10T01:14:38.538Z,62.13
2023-05-10T01:19:41.344Z,62.21
2023-05-10T01:25:06.272Z,62.14
2023-05-10T01:35:54.860Z,62.09
2023-05-10T01:41:12.700Z,62.11
2023-05-10T01:46:25.642Z,62.96
2023-05-10T01:51:36.438Z,63.18
2023-05-10T01:56:41.659Z,63.42
2023-05-10T02:01:46.068Z,63.46
2023-05-10T02:06:49.659Z,63.70
2023-05-10T02:11:54.810Z,64.03
2023-05-10T02:16:59.553Z,64.43
2023-05-10T02:22:04.289Z,64.51
2023-05-10T02:27:07.859Z,65.02
2023-05-10T02:32:11.718Z,65.08
2023-05-10T02:37:21.441Z,65.16
2023-05-10T02:42:28.773Z,64.87
2023-05-10T02:47:31.421Z,65.09
2023-05-10T02:52:47.679Z,65.60
2023-05-10T02:57:57.739Z,65.97
2023-05-10T03:03:00.450Z,65.97
2023-05-10T03:08:05.140Z,65.57
2023-05-10T03:13:30.621Z,65.21
2023-05-10T03:18:55.574Z,65.08
2023-05-10T03:24:04.040Z,64.88
2023-05-10T03:29:07.348Z,64.94
2023-05-10T03:34:10.030Z,64.66
2023-05-10T03:39:12.526Z,64.54
2023-05-10T03:44:15.100Z,64.21
2023-05-10T03:49:17.649Z,64.10
2023-05-10T03:54:20.294Z,63.76
2023-05-10T03:59:22.811Z,63.24
2023-05-10T04:04:25.394Z,62.88
2023-05-10T04:09:27.985Z,61.97
2023-05-10T04:14:30.586Z,61.44
2023-05-10T04:19:33.862Z,60.80
2023-05-10T04:24:36.408Z,59.90
2023-05-10T04:29:39.345Z,59.40
2023-05-10T04:34:41.932Z,59.01
2023-05-10T04:39:45.298Z,58.83
2023-05-10T04:44:48.038Z,58.69
2023-05-10T04:49:50.641Z,57.97
2023-05-10T04:54:53.249Z,57.43
2023-05-10T04:59:56.008Z,56.91
2023-05-10T05:05:01.515Z,56.55
2023-05-10T05:10:04.593Z,56.21
2023-05-10T05:15:09.881Z,55.67
2023-05-10T05:20:13.660Z,55.15
2023-05-10T05:25:16.917Z,54.28
2023-05-10T05:30:19.990Z,53.76
2023-05-10T05:35:22.573Z,52.88
2023-05-10T05:40:25.259Z,52.42
2023-05-10T05:45:27.924Z,51.67
2023-05-10T05:50:30.533Z,51.16
2023-05-10T05:55:33.430Z,50.56
2023-05-10T06:00:36.134Z,49.84
2023-05-10T06:05:38.820Z,49.06
2023-05-10T06:10:41.411Z,48.05
2023-05-10T06:15:45.359Z,47.64
2023-05-10T06:20:50.766Z,46.95
2023-05-10T06:25:54.280Z,46.24
2023-05-10T06:30:57.902Z,45.57
2023-05-10T06:36:01.200Z,45.04
2023-05-10T06:41:04.110Z,43.71
2023-05-10T06:46:08.211Z,42.93
2023-05-10T06:51:11.115Z,41.84
2023-05-10T06:56:13.701Z,42.17
2023-05-10T07:01:16.374Z,40.88
2023-05-10T07:06:32.291Z,39.45
2023-05-10T07:11:38.350Z,38.39
2023-05-10T07:16:40.972Z,36.78
2023-05-10T07:21:44.310Z,37.16
2023-05-10T07:26:47.199Z,36.17
2023-05-10T07:31:50.038Z,35.54
2023-05-10T07:36:53.563Z,34.93
2023-05-10T07:41:56.783Z,34.47
2023-05-10T07:46:59.549Z,34.23
2023-05-10T07:52:04.211Z,33.18
2023-05-10T07:57:07.235Z,32.19
2023-05-10T08:02:09.853Z,30.91
2023-05-10T08:07:12.570Z,31.33
2023-05-10T08:12:15.287Z,31.04
2023-05-10T08:17:20.083Z,30.65
2023-05-10T08:22:23.182Z,30.41
2023-05-10T08:27:25.951Z,29.96
2023-05-10T08:32:28.518Z,28.99
2023-05-10T08:37:31.339Z,29.00
2023-05-10T08:42:37.113Z,29.31
2023-05-10T08:47:40.182Z,28.63
2023-05-10T08:52:43.597Z,29.11
2023-05-10T08:57:46.491Z,28.89
2023-05-10T09:02:51.176Z,28.25
2023-05-10T09:07:53.917Z,27.58
2023-05-10T09:12:59.336Z,27.11
2023-05-10T09:18:03.356Z,27.62
2023-05-10T09:23:06.783Z,27.75
2023-05-10T09:28:10.561Z,27.57
2023-05-10T09:33:13.202Z,27.35
2023-05-10T09:38:16.340Z,27.39
2023-05-10T09:43:18.907Z,26.99
2023-05-10T09:48:25.014Z,26.69
2023-05-10T09:53:27.571Z,25.98
2023-05-10T09:58:30.374Z,26.28
2023-05-10T10:03:33.971Z,26.30
2023-05-10T10:08:37.229Z,25.93
2023-05-10T10:13:41.353Z,25.99
2023-05-10T10:18:45.347Z,25.71
2023-05-10T10:23:51.992Z,25.85
2023-05-10T10:29:26.538Z,26.32
2023-05-10T10:34:31.432Z,26.06
2023-05-10T10:39:34.175Z,25.70
2023-05-10T10:44:39.262Z,25.60
2023-05-10T10:49:41.910Z,25.59
2023-05-10T10:54:53.377Z,25.61
2023-05-10T11:00:23.952Z,25.73
2023-05-10T11:05:38.563Z,25.32
2023-05-10T11:10:49.719Z,25.48
2023-05-10T11:15:52.481Z,25.57
2023-05-10T11:21:10.194Z,25.25
2023-05-10T11:26:13.414Z,24.32
2023-05-10T11:31:17.827Z,24.38
2023-05-10T11:36:22.520Z,24.25
2023-05-10T11:41:26.445Z,23.90
2023-05-10T11:46:29.620Z,23.81
2023-05-10T11:51:36.143Z,23.79
2023-05-10T11:56:40.188Z,23.95
2023-05-10T12:01:43.838Z,23.86
2023-05-10T12:06:47.518Z,23.51
2023-05-10T12:11:50.053Z,23.26
2023-05-10T12:16:52.723Z,22.86
2023-05-10T12:21:55.368Z,22.09
2023-05-10T12:26:57.973Z,22.68
2023-05-10T12:32:01.332Z,22.63
2023-05-10T12:37:05.139Z,22.87
2023-05-10T12:42:08.059Z,22.62
2023-05-10T12:47:10.719Z,22.04
2023-05-10T12:52:13.234Z,21.90
2023-05-10T12:57:16.002Z,21.89
2023-05-10T13:02:19.136Z,22.08
2023-05-10T13:07:21.826Z,21.50
2023-05-10T13:12:24.507Z,20.80
2023-05-10T13:17:27.149Z,20.69
2023-05-10T13:22:39.741Z,20.81
2023-05-10T13:27:43.004Z,20.37
2023-05-10T13:38:08.723Z,19.52
2023-05-10T13:43:11.369Z,19.09
2023-05-10T13:48:14.571Z,18.38
2023-05-10T13:53:17.185Z,17.39
2023-05-10T13:58:20.536Z,16.78
2023-05-10T14:03:23.475Z,16.72
2023-05-10T14:08:28.227Z,16.26
2023-05-10T14:13:31.373Z,16.06
2023-05-10T14:18:34.060Z,15.76
2023-05-10T14:23:36.790Z,15.41
2023-05-10T14:28:39.491Z,14.95
2023-05-10T14:33:42.241Z,14.46
2023-05-10T14:38:45.019Z,14.36
2023-05-10T14:43:47.541Z,14.07
2023-05-10T14:48:50.159Z,13.92
2023-05-10T14:53:53.114Z,13.42
2023-05-10T14:58:56.643Z,13.55
2023-05-10T15:04:00.012Z,13.31
2023-05-10T15:09:04.523Z,13.00
2023-05-10T15:14:07.383Z,12.93
2023-05-10T15:19:10.992Z,13.12
2023-05-10T15:24:13.612Z,12.84
2023-05-10T15:29:20.927Z,12.30
2023-05-10T15:34:23.510Z,12.26
2023-05-10T15:39:26.061Z,12.16
2023-05-10T15:44:28.933Z,12.49
2023-05-10T15:49:31.679Z,12.13
2023-05-10T15:54:34.251Z,12.12
2023-05-10T15:59:37.748Z,12.13
2023-05-10T16:04:40.359Z,11.53
2023-05-10T16:09:43.111Z,11.56
2023-05-10T16:14:46.759Z,12.09
2023-05-10T16:19:49.393Z,12.90
2023-05-10T16:24:53.628Z,13.69
2023-05-10T16:29:56.264Z,15.17
2023-05-10T16:34:59.002Z,16.80
2023-05-10T16:40:01.666Z,18.23
2023-05-10T16:45:07.684Z,19.27
2023-05-10T16:50:10.468Z,20.23
2023-05-10T16:55:13.078Z,20.87
2023-05-10T17:00:16.306Z,21.54
2023-05-10T17:05:19.063Z,21.79
2023-05-10T17:10:21.818Z,22.51
2023-05-10T17:15:24.407Z,23.28
2023-05-10T17:20:27.503Z,23.81
2023-05-10T17:25:30.063Z,24.47
2023-05-10T17:30:32.967Z,25.04
2023-05-10T17:35:35.644Z,26.00
2023-05-10T17:40:40.928Z,26.21
2023-05-10T17:45:44.793Z,26.43
2023-05-10T17:50:50.018Z,27.10
2023-05-10T17:55:52.736Z,28.09
2023-05-10T18:00:58.390Z,28.42
2023-05-10T18:06:01.259Z,29.13
2023-05-10T18:11:03.930Z,29.67
2023-05-10T18:16:08.881Z,30.21
2023-05-10T18:21:11.472Z,30.61
2023-05-10T18:26:14.160Z,31.36
2023-05-10T18:31:16.811Z,31.96
2023-05-10T18:36:19.460Z,32.33
2023-05-10T18:41:22.417Z,32.80
2023-05-10T18:46:25.153Z,33.26
2023-05-10T18:51:29.551Z,34.21
2023-05-10T18:56:32.187Z,34.60
2023-05-10T19:01:34.742Z,35.13
2023-05-10T19:06:37.398Z,35.87
2023-05-10T19:11:40.989Z,36.38
2023-05-10T19:16:43.712Z,36.77
2023-05-10T19:21:48.350Z,37.46
2023-05-10T19:26:51.988Z,38.11
2023-05-10T19:31:54.627Z,38.62
2023-05-10T19:36:57.266Z,39.10
2023-05-10T19:42:00.773Z,39.60
2023-05-10T19:47:05.198Z,40.12
2023-05-10T19:52:08.156Z,40.32
2023-05-10T19:57:12.027Z,40.39
2023-05-10T20:02:15.476Z,40.74
2023-05-10T20:07:20.969Z,41.23
2023-05-10T20:12:26.465Z,41.82
2023-05-10T20:17:29.472Z,41.81
2023-05-10T20:22:32.078Z,42.10
2023-05-10T20:27:38.612Z,42.75
2023-05-10T20:32:49.157Z,43.21
2023-05-10T20:37:53.050Z,43.67
2023-05-10T20:42:55.789Z,44.35
2023-05-10T20:47:58.523Z,44.85
2023-05-10T20:53:01.383Z,45.41
2023-05-10T20:58:05.104Z,45.69
2023-05-10T21:03:08.086Z,45.65
2023-05-10T21:08:10.765Z,46.14
2023-05-10T21:13:13.458Z,46.17
2023-05-10T21:18:16.013Z,46.44
2023-05-10T21:23:18.659Z,46.49
2023-05-10T21:28:21.649Z,46.82
2023-05-10T21:33:24.362Z,47.26
2023-05-10T21:38:29.996Z,47.18
2023-05-10T21:43:32.765Z,47.42
2023-05-10T21:48:36.376Z,47.76
2023-05-10T21:53:39.435Z,48.02
2023-05-10T21:58:41.943Z,48.12
2023-05-10T22:03:44.774Z,48.65
2023-05-10T22:08:47.422Z,48.65
2023-05-10T22:13:50.003Z,49.04
2023-05-10T22:18:54.418Z,49.49
2023-05-10T22:23:57.145Z,49.64
2023-05-10T22:28:59.862Z,50.53
2023-05-10T22:34:02.516Z,50.72
2023-05-10T22:39:05.039Z,50.64
2023-05-10T22:44:08.244Z,51.13
2023-05-10T22:49:11.350Z,51.21
2023-05-10T22:54:14.050Z,51.26
2023-05-10T22:59:16.580Z,51.20
2023-05-10T23:04:19.177Z,51.85
2023-05-10T23:09:21.794Z,52.17
2023-05-10T23:14:24.433Z,52.47
2023-05-10T23:19:26.984Z,52.63
2023-05-10T23:24:29.575Z,52.81
2023-05-10T23:29:32.978Z,53.38
2023-05-10T23:34:36.521Z,53.99
2023-05-10T23:39:39.065Z,55.18
2023-05-10T23:44:41.794Z,55.97
2023-05-10T23:49:44.455Z,55.86
2023-05-10T23:54:47.291Z,55.47
2023-05-10T23:59:51.131Z,55.61
